IBS1758 LEZL-LEMD
Flight info
| Callsign | IBS1758 |
|---|---|
| Flight time | N/A |
| Altitude | 28000 |
| Route | HIJ Z230 SOTUK |
| Aircraft | A320/M-SDE3FGHIRWY/LB1 |
Departure
| Time | 2026-04-28 16:33 |
|---|---|
| Airport | Seville Airport (LEZL) |
Arrival
| Time | N/A |
|---|---|
| Airport | Adolfo Suárez Madrid–Barajas Airport (LEMD) |
| Time | Latitude | Longitude | Altitude | Speed | Heading |
|---|---|---|---|---|---|
| 2026-04-28 16:00 | 37.42303 | -5.89842 | 94 ft | 0 kts | 315° |
| 2026-04-28 16:24 | 37.42300 | -5.89839 | 93 ft | 3 kts | 315° |
| 2026-04-28 16:24 | 37.42280 | -5.89818 | 93 ft | 4 kts | 332° |
| 2026-04-28 16:24 | 37.42255 | -5.89806 | 95 ft | 4 kts | 354° |
| 2026-04-28 16:24 | 37.42229 | -5.89809 | 93 ft | 4 kts | 25° |
| 2026-04-28 16:25 | 37.42215 | -5.89819 | 93 ft | 0 kts | 45° |
| 2026-04-28 16:27 | 37.42216 | -5.89819 | 93 ft | 1 kts | 45° |
| 2026-04-28 16:27 | 37.42241 | -5.89787 | 96 ft | 7 kts | 45° |
| 2026-04-28 16:27 | 37.42237 | -5.89685 | 94 ft | 10 kts | 133° |
| 2026-04-28 16:28 | 37.42190 | -5.89625 | 95 ft | 10 kts | 134° |
| 2026-04-28 16:28 | 37.42148 | -5.89570 | 96 ft | 16 kts | 134° |
| 2026-04-28 16:28 | 37.42047 | -5.89440 | 98 ft | 16 kts | 134° |
| 2026-04-28 16:28 | 37.41986 | -5.89357 | 99 ft | 9 kts | 120° |
| 2026-04-28 16:29 | 37.41983 | -5.89126 | 100 ft | 22 kts | 90° |
| 2026-04-28 16:29 | 37.41984 | -5.88717 | 103 ft | 24 kts | 89° |
| 2026-04-28 16:30 | 37.41985 | -5.88513 | 103 ft | 24 kts | 90° |
| 2026-04-28 16:30 | 37.41985 | -5.88302 | 105 ft | 24 kts | 89° |
| 2026-04-28 16:30 | 37.41987 | -5.88094 | 106 ft | 24 kts | 89° |
| 2026-04-28 16:30 | 37.41987 | -5.87881 | 107 ft | 24 kts | 90° |
| 2026-04-28 16:31 | 37.41988 | -5.87674 | 109 ft | 19 kts | 89° |
| 2026-04-28 16:31 | 37.41987 | -5.87570 | 109 ft | 10 kts | 95° |
| 2026-04-28 16:31 | 37.41972 | -5.87498 | 110 ft | 7 kts | 108° |
| 2026-04-28 16:31 | 37.41940 | -5.87446 | 110 ft | 13 kts | 144° |
| 2026-04-28 16:32 | 37.41856 | -5.87439 | 116 ft | 11 kts | 205° |
| 2026-04-28 16:32 | 37.41800 | -5.87643 | 113 ft | 12 kts | 269° |
| 2026-04-28 16:32 | 37.41799 | -5.87796 | 111 ft | 35 kts | 269° |
| 2026-04-28 16:33 | 37.41797 | -5.88426 | 107 ft | 105 kts | 270° |
| 2026-04-28 16:33 | 37.41796 | -5.89143 | 101 ft | 142 kts | 270° |
| 2026-04-28 16:33 | 37.41792 | -5.91105 | 437 ft | 172 kts | 270° |
| 2026-04-28 16:33 | 37.41830 | -5.92578 | 1182 ft | 170 kts | 285° |
| 2026-04-28 16:34 | 37.42496 | -5.93809 | 1636 ft | 181 kts | 323° |
| 2026-04-28 16:34 | 37.43506 | -5.94886 | 1976 ft | 201 kts | 321° |
| 2026-04-28 16:34 | 37.44619 | -5.96119 | 2301 ft | 225 kts | 321° |
| 2026-04-28 16:34 | 37.45862 | -5.97498 | 2719 ft | 250 kts | 320° |
| 2026-04-28 16:35 | 37.47213 | -5.99011 | 3278 ft | 266 kts | 319° |
| 2026-04-28 16:35 | 37.48601 | -6.00582 | 4099 ft | 272 kts | 319° |
| 2026-04-28 16:35 | 37.50015 | -6.02202 | 4955 ft | 278 kts | 320° |
| 2026-04-28 16:35 | 37.51454 | -6.03857 | 5797 ft | 282 kts | 319° |
| 2026-04-28 16:36 | 37.52914 | -6.05541 | 6619 ft | 286 kts | 319° |
| 2026-04-28 16:36 | 37.54393 | -6.07253 | 7402 ft | 292 kts | 319° |
| 2026-04-28 16:36 | 37.55902 | -6.08999 | 8185 ft | 297 kts | 320° |
| 2026-04-28 16:36 | 37.57611 | -6.10443 | 8915 ft | 298 kts | 342° |
| 2026-04-28 16:37 | 37.59631 | -6.10883 | 9639 ft | 295 kts | 7° |
| 2026-04-28 16:37 | 37.61587 | -6.10242 | 10402 ft | 290 kts | 31° |
| 2026-04-28 16:37 | 37.63259 | -6.08726 | 10754 ft | 307 kts | 43° |
| 2026-04-28 16:38 | 37.66661 | -6.04919 | 11234 ft | 346 kts | 44° |
| 2026-04-28 16:38 | 37.68469 | -6.02872 | 11851 ft | 351 kts | 43° |
| 2026-04-28 16:38 | 37.70304 | -6.00808 | 12530 ft | 355 kts | 43° |
| 2026-04-28 16:38 | 37.72160 | -5.98732 | 13183 ft | 359 kts | 43° |
| 2026-04-28 16:39 | 37.74040 | -5.96636 | 13819 ft | 362 kts | 43° |
| 2026-04-28 16:39 | 37.75942 | -5.94523 | 14434 ft | 366 kts | 43° |
| 2026-04-28 16:39 | 37.77867 | -5.92389 | 15029 ft | 370 kts | 42° |
| 2026-04-28 16:39 | 37.79813 | -5.90230 | 15624 ft | 374 kts | 42° |
| 2026-04-28 16:40 | 37.81774 | -5.88052 | 16189 ft | 377 kts | 42° |
| 2026-04-28 16:40 | 37.83751 | -5.85852 | 16765 ft | 380 kts | 42° |
| 2026-04-28 16:40 | 37.85745 | -5.83624 | 17278 ft | 384 kts | 42° |
| 2026-04-28 16:40 | 37.87755 | -5.81372 | 17795 ft | 388 kts | 42° |
| 2026-04-28 16:41 | 37.89781 | -5.79097 | 18300 ft | 391 kts | 42° |
| 2026-04-28 16:41 | 37.91825 | -5.76801 | 18807 ft | 394 kts | 42° |
| 2026-04-28 16:41 | 37.93886 | -5.74490 | 19309 ft | 397 kts | 42° |
| 2026-04-28 16:41 | 37.95964 | -5.72159 | 19783 ft | 400 kts | 42° |
| 2026-04-28 16:42 | 37.98056 | -5.69811 | 20253 ft | 403 kts | 42° |
| 2026-04-28 16:42 | 38.00162 | -5.67446 | 20713 ft | 406 kts | 42° |
| 2026-04-28 16:42 | 38.02286 | -5.65062 | 21142 ft | 409 kts | 42° |
| 2026-04-28 16:42 | 38.04423 | -5.62663 | 21568 ft | 412 kts | 42° |
| 2026-04-28 16:43 | 38.06577 | -5.60243 | 21999 ft | 414 kts | 42° |
| 2026-04-28 16:43 | 38.08740 | -5.57809 | 22414 ft | 417 kts | 42° |
| 2026-04-28 16:43 | 38.10915 | -5.55361 | 22813 ft | 419 kts | 42° |
| 2026-04-28 16:43 | 38.13072 | -5.52924 | 23188 ft | 422 kts | 42° |
| 2026-04-28 16:44 | 38.15272 | -5.50433 | 23561 ft | 425 kts | 42° |
| 2026-04-28 16:44 | 38.17482 | -5.47928 | 23926 ft | 427 kts | 42° |
| 2026-04-28 16:44 | 38.19706 | -5.45407 | 24286 ft | 430 kts | 42° |
| 2026-04-28 16:44 | 38.21937 | -5.42876 | 24635 ft | 432 kts | 42° |
| 2026-04-28 16:45 | 38.24185 | -5.40326 | 24987 ft | 434 kts | 42° |
| 2026-04-28 16:45 | 38.26442 | -5.37769 | 25334 ft | 436 kts | 42° |
| 2026-04-28 16:45 | 38.28709 | -5.35197 | 25670 ft | 438 kts | 42° |
| 2026-04-28 16:45 | 38.30986 | -5.32609 | 26010 ft | 440 kts | 42° |
| 2026-04-28 16:46 | 38.33269 | -5.30008 | 26339 ft | 442 kts | 42° |
| 2026-04-28 16:46 | 38.35562 | -5.27394 | 26651 ft | 443 kts | 42° |
| 2026-04-28 16:46 | 38.37865 | -5.24771 | 26945 ft | 445 kts | 42° |
| 2026-04-28 16:46 | 38.40179 | -5.22138 | 27239 ft | 447 kts | 42° |
| 2026-04-28 16:47 | 38.42500 | -5.19490 | 27525 ft | 449 kts | 42° |
| 2026-04-28 16:47 | 38.44828 | -5.16829 | 27859 ft | 449 kts | 42° |
| 2026-04-28 16:47 | 38.47156 | -5.14168 | 28066 ft | 449 kts | 42° |
| 2026-04-28 16:48 | 38.52130 | -5.09451 | 28110 ft | 445 kts | 28° |
| 2026-04-28 16:48 | 38.57797 | -5.06406 | 28109 ft | 445 kts | 22° |
| 2026-04-28 16:49 | 38.63549 | -5.03472 | 28109 ft | 445 kts | 22° |
| 2026-04-28 16:49 | 38.69297 | -5.00525 | 28118 ft | 445 kts | 22° |
| 2026-04-28 16:50 | 38.75048 | -4.97569 | 28115 ft | 445 kts | 22° |
| 2026-04-28 16:50 | 38.80792 | -4.94616 | 28115 ft | 445 kts | 22° |
| 2026-04-28 16:51 | 38.86529 | -4.91657 | 28112 ft | 444 kts | 22° |
| 2026-04-28 16:51 | 38.91296 | -4.89193 | 28111 ft | 445 kts | 22° |
| 2026-04-28 16:52 | 38.97969 | -4.85748 | 28119 ft | 445 kts | 22° |
| 2026-04-28 16:52 | 39.03716 | -4.82775 | 28124 ft | 445 kts | 22° |
| 2026-04-28 16:53 | 39.08526 | -4.80280 | 28126 ft | 445 kts | 22° |
| 2026-04-28 16:53 | 39.14236 | -4.77313 | 28130 ft | 445 kts | 22° |
| 2026-04-28 16:54 | 39.19730 | -4.73702 | 28138 ft | 444 kts | 36° |
| 2026-04-28 16:54 | 39.24265 | -4.68324 | 28138 ft | 443 kts | 45° |
| 2026-04-28 16:55 | 39.28617 | -4.62685 | 28142 ft | 444 kts | 45° |
| 2026-04-28 16:55 | 39.32977 | -4.57040 | 28137 ft | 445 kts | 45° |
| 2026-04-28 16:56 | 39.37345 | -4.51363 | 27208 ft | 446 kts | 45° |
| 2026-04-28 16:56 | 39.39547 | -4.48493 | 25489 ft | 452 kts | 45° |
| 2026-04-28 16:56 | 39.41759 | -4.45612 | 24121 ft | 452 kts | 45° |
| 2026-04-28 16:56 | 39.43967 | -4.42739 | 23472 ft | 446 kts | 45° |
| 2026-04-28 16:57 | 39.46142 | -4.39908 | 22825 ft | 441 kts | 45° |
| 2026-04-28 16:57 | 39.48288 | -4.37109 | 22188 ft | 436 kts | 46° |
| 2026-04-28 16:57 | 39.50412 | -4.34337 | 21580 ft | 431 kts | 46° |
| 2026-04-28 16:57 | 39.52508 | -4.31599 | 20976 ft | 426 kts | 46° |
| 2026-04-28 16:58 | 39.54592 | -4.28874 | 20230 ft | 425 kts | 46° |
| 2026-04-28 16:58 | 39.56666 | -4.26158 | 19525 ft | 423 kts | 46° |
| 2026-04-28 16:58 | 39.58730 | -4.23449 | 18804 ft | 421 kts | 46° |
| 2026-04-28 16:58 | 39.60773 | -4.20763 | 18165 ft | 417 kts | 46° |
| 2026-04-28 16:59 | 39.62799 | -4.18099 | 17611 ft | 410 kts | 46° |
| 2026-04-28 16:59 | 39.64770 | -4.15507 | 16703 ft | 400 kts | 46° |
| 2026-04-28 16:59 | 39.66715 | -4.12944 | 16057 ft | 398 kts | 46° |
| 2026-04-28 16:59 | 39.68655 | -4.10391 | 15431 ft | 395 kts | 46° |
| 2026-04-28 17:00 | 39.70561 | -4.07881 | 15131 ft | 384 kts | 46° |
| 2026-04-28 17:00 | 39.72402 | -4.05456 | 15011 ft | 370 kts | 46° |
| 2026-04-28 17:00 | 39.74175 | -4.03116 | 14864 ft | 356 kts | 46° |
| 2026-04-28 17:00 | 39.75880 | -4.00858 | 14754 ft | 344 kts | 47° |
| 2026-04-28 17:01 | 39.77516 | -3.98691 | 14630 ft | 325 kts | 47° |
| 2026-04-28 17:01 | 39.79051 | -3.96659 | 14495 ft | 304 kts | 47° |
| 2026-04-28 17:01 | 39.80491 | -3.94758 | 14370 ft | 286 kts | 47° |
| 2026-04-28 17:01 | 39.81847 | -3.92964 | 14189 ft | 271 kts | 47° |
| 2026-04-28 17:02 | 39.83156 | -3.91231 | 13798 ft | 265 kts | 47° |
| 2026-04-28 17:02 | 39.84438 | -3.89531 | 13576 ft | 263 kts | 47° |
| 2026-04-28 17:02 | 39.85718 | -3.87830 | 13294 ft | 263 kts | 47° |
| 2026-04-28 17:02 | 39.86993 | -3.86133 | 13013 ft | 262 kts | 47° |
| 2026-04-28 17:03 | 39.89505 | -3.82787 | 12472 ft | 258 kts | 47° |
| 2026-04-28 17:03 | 39.90760 | -3.81120 | 12194 ft | 257 kts | 48° |
| 2026-04-28 17:03 | 39.92011 | -3.79458 | 11904 ft | 256 kts | 48° |
| 2026-04-28 17:04 | 39.94493 | -3.76155 | 11339 ft | 254 kts | 48° |
| 2026-04-28 17:04 | 39.95722 | -3.74515 | 11072 ft | 253 kts | 48° |
| 2026-04-28 17:05 | 39.98169 | -3.71240 | 10527 ft | 252 kts | 48° |
| 2026-04-28 17:05 | 39.99387 | -3.69610 | 10256 ft | 252 kts | 48° |
| 2026-04-28 17:05 | 40.00608 | -3.67973 | 9978 ft | 251 kts | 48° |
| 2026-04-28 17:06 | 40.03043 | -3.64721 | 9431 ft | 250 kts | 48° |
| 2026-04-28 17:06 | 40.04256 | -3.63097 | 9173 ft | 250 kts | 48° |
| 2026-04-28 17:06 | 40.06679 | -3.59853 | 8616 ft | 249 kts | 48° |
| 2026-04-28 17:07 | 40.07884 | -3.58239 | 8348 ft | 248 kts | 47° |
| 2026-04-28 17:07 | 40.09085 | -3.56633 | 8082 ft | 246 kts | 47° |
| 2026-04-28 17:07 | 40.10280 | -3.55028 | 7811 ft | 246 kts | 48° |
| 2026-04-28 17:07 | 40.11470 | -3.53433 | 7543 ft | 245 kts | 48° |
| 2026-04-28 17:08 | 40.12655 | -3.51844 | 7281 ft | 243 kts | 47° |
| 2026-04-28 17:08 | 40.13834 | -3.50259 | 7032 ft | 243 kts | 47° |
| 2026-04-28 17:08 | 40.15009 | -3.48681 | 6764 ft | 242 kts | 47° |
| 2026-04-28 17:08 | 40.16178 | -3.47108 | 6494 ft | 241 kts | 47° |
| 2026-04-28 17:09 | 40.17333 | -3.45571 | 6230 ft | 240 kts | 46° |
| 2026-04-28 17:09 | 40.18549 | -3.44084 | 5913 ft | 239 kts | 44° |
| 2026-04-28 17:09 | 40.19786 | -3.42633 | 5571 ft | 239 kts | 43° |
| 2026-04-28 17:09 | 40.21070 | -3.41255 | 5233 ft | 239 kts | 33° |
| 2026-04-28 17:10 | 40.22532 | -3.40208 | 4897 ft | 239 kts | 30° |
| 2026-04-28 17:10 | 40.23992 | -3.39172 | 4589 ft | 238 kts | 28° |
| 2026-04-28 17:10 | 40.25565 | -3.38529 | 4349 ft | 237 kts | 8° |
| 2026-04-28 17:10 | 40.27210 | -3.38576 | 4304 ft | 238 kts | 353° |
| 2026-04-28 17:11 | 40.28836 | -3.38864 | 4302 ft | 230 kts | 353° |
| 2026-04-28 17:11 | 40.30333 | -3.39392 | 4300 ft | 218 kts | 334° |
| 2026-04-28 17:11 | 40.31579 | -3.40478 | 4309 ft | 213 kts | 322° |
| 2026-04-28 17:11 | 40.32746 | -3.41665 | 4312 ft | 212 kts | 323° |
| 2026-04-28 17:12 | 40.33912 | -3.42844 | 4313 ft | 211 kts | 323° |
| 2026-04-28 17:12 | 40.35075 | -3.44020 | 4317 ft | 211 kts | 323° |
| 2026-04-28 17:12 | 40.36235 | -3.45191 | 4304 ft | 212 kts | 323° |
| 2026-04-28 17:12 | 40.37414 | -3.46382 | 4116 ft | 214 kts | 323° |
| 2026-04-28 17:13 | 40.38596 | -3.47576 | 3847 ft | 215 kts | 323° |
| 2026-04-28 17:13 | 40.39785 | -3.48779 | 3564 ft | 217 kts | 323° |
| 2026-04-28 17:13 | 40.40988 | -3.49997 | 3276 ft | 219 kts | 323° |
| 2026-04-28 17:13 | 40.42200 | -3.51225 | 2990 ft | 221 kts | 322° |
| 2026-04-28 17:14 | 40.43417 | -3.52458 | 2701 ft | 221 kts | 322° |
| 2026-04-28 17:14 | 40.44594 | -3.53650 | 2418 ft | 211 kts | 322° |
| 2026-04-28 17:14 | 40.45734 | -3.54806 | 2130 ft | 198 kts | 322° |
| 2026-04-28 17:14 | 40.46665 | -3.55748 | 1978 ft | 178 kts | 323° |